createdAt,value
2023-11-27T00:00:48.408Z,2.50
2023-11-27T00:03:15.091Z,2.30
2023-11-27T00:05:41.737Z,2.60
2023-11-27T00:08:12.314Z,2.33
2023-11-27T00:10:40.519Z,2.60
2023-11-27T00:13:08.254Z,2.13
2023-11-27T00:15:36.536Z,2.30
2023-11-27T00:18:03.109Z,2.05
2023-11-27T00:20:29.685Z,1.60
2023-11-27T00:22:57.276Z,2.28
2023-11-27T00:25:24.871Z,1.95
2023-11-27T00:27:51.486Z,1.83
2023-11-27T00:30:19.132Z,1.90
2023-11-27T00:32:45.732Z,1.90
2023-11-27T00:35:12.321Z,2.70
2023-11-27T00:37:39.915Z,2.50
2023-11-27T00:40:08.373Z,2.60
2023-11-27T00:42:36.033Z,2.28
2023-11-27T00:45:02.609Z,2.42
2023-11-27T00:47:30.305Z,2.40
2023-11-27T00:49:56.868Z,2.40
2023-11-27T00:52:24.535Z,2.50
2023-11-27T00:54:51.089Z,2.97
2023-11-27T00:57:18.795Z,2.42
2023-11-27T00:59:45.388Z,2.42
2023-11-27T01:02:12.133Z,2.22
2023-11-27T01:04:40.789Z,1.77
2023-11-27T01:07:07.807Z,2.15
2023-11-27T01:09:35.795Z,1.77
2023-11-27T01:12:02.498Z,1.85
2023-11-27T01:14:29.100Z,1.73
2023-11-27T01:16:56.750Z,2.20
2023-11-27T01:19:24.622Z,2.70
2023-11-27T01:21:51.166Z,2.97
2023-11-27T01:24:17.749Z,3.20
2023-11-27T01:26:45.303Z,3.53
2023-11-27T01:29:11.880Z,3.03
2023-11-27T01:31:39.474Z,2.38
2023-11-27T01:34:07.192Z,2.72
2023-11-27T01:36:33.796Z,2.33
2023-11-27T01:39:00.354Z,2.58
2023-11-27T01:41:27.960Z,2.10
2023-11-27T01:43:54.511Z,1.92
2023-11-27T01:46:28.209Z,2.10
2023-11-27T01:48:56.272Z,2.38
2023-11-27T01:51:33.091Z,2.38
2023-11-27T01:54:00.396Z,2.10
2023-11-27T01:56:30.560Z,2.17
2023-11-27T01:58:59.802Z,2.30
2023-11-27T02:01:28.836Z,2.13
2023-11-27T02:06:23.138Z,2.10
2023-11-27T02:08:51.963Z,2.00
2023-11-27T02:11:19.782Z,2.47
2023-11-27T02:13:46.790Z,2.70
2023-11-27T02:16:14.284Z,2.47
2023-11-27T02:18:41.964Z,2.58
2023-11-27T02:21:08.964Z,2.83
2023-11-27T02:23:36.635Z,2.22
2023-11-27T02:26:03.258Z,2.60
2023-11-27T02:28:30.945Z,3.00
2023-11-27T02:30:57.568Z,2.28
2023-11-27T02:33:25.255Z,2.35
2023-11-27T02:35:52.186Z,2.83
2023-11-27T02:38:19.868Z,2.95
2023-11-27T02:40:46.844Z,2.70
2023-11-27T02:43:14.504Z,2.92
2023-11-27T02:45:41.214Z,2.63
2023-11-27T02:48:08.897Z,2.60
2023-11-27T02:50:35.461Z,2.70
2023-11-27T02:53:03.064Z,2.30
2023-11-27T02:55:29.636Z,1.80
2023-11-27T02:57:57.289Z,2.00
2023-11-27T03:00:23.867Z,1.13
2023-11-27T03:02:51.630Z,1.30
2023-11-27T03:05:18.609Z,1.27
2023-11-27T03:07:45.264Z,1.30
2023-11-27T03:10:15.117Z,0.88
2023-11-27T03:12:42.804Z,0.80
2023-11-27T03:15:10.516Z,0.93
2023-11-27T03:17:40.917Z,0.88
2023-11-27T03:20:12.700Z,1.00
2023-11-27T03:22:43.987Z,1.13
2023-11-27T03:25:10.702Z,0.80
2023-11-27T03:27:37.354Z,0.70
2023-11-27T03:30:06.167Z,0.90
2023-11-27T03:32:34.107Z,0.88
2023-11-27T03:35:01.870Z,1.10
2023-11-27T03:37:29.532Z,1.00
2023-11-27T03:39:56.109Z,0.77
2023-11-27T03:42:22.708Z,0.70
2023-11-27T03:44:50.355Z,1.08
2023-11-27T03:47:16.929Z,0.90
2023-11-27T03:49:43.522Z,1.30
2023-11-27T03:52:11.175Z,0.82
2023-11-27T03:54:37.825Z,0.77
2023-11-27T03:57:05.624Z,0.95
2023-11-27T03:59:33.482Z,0.88
2023-11-27T04:02:01.591Z,1.23
2023-11-27T04:04:28.305Z,0.95
2023-11-27T04:06:56.607Z,1.00
2023-11-27T04:09:23.268Z,0.90
2023-11-27T04:11:51.048Z,0.98
2023-11-27T04:14:17.661Z,0.80
2023-11-27T04:16:45.420Z,0.70
2023-11-27T04:19:13.209Z,1.00
2023-11-27T04:21:39.887Z,1.13
2023-11-27T04:24:08.356Z,0.82
2023-11-27T04:26:35.100Z,0.88
2023-11-27T04:29:02.792Z,1.10
2023-11-27T04:31:29.388Z,0.95
2023-11-27T04:33:57.127Z,1.58
2023-11-27T04:36:23.731Z,1.02
2023-11-27T04:38:51.331Z,0.90
2023-11-27T04:41:18.269Z,0.82
2023-11-27T04:43:44.814Z,0.90
2023-11-27T04:46:12.640Z,0.90
2023-11-27T04:48:39.436Z,0.93
2023-11-27T04:51:07.502Z,0.90
2023-11-27T04:53:34.090Z,0.80
2023-11-27T04:56:04.376Z,0.90
2023-11-27T04:58:32.594Z,0.80
2023-11-27T05:01:01.822Z,0.90
2023-11-27T05:03:29.443Z,0.90
2023-11-27T05:05:56.209Z,0.80
2023-11-27T05:08:23.811Z,0.93
2023-11-27T05:10:50.543Z,1.00
2023-11-27T05:13:17.266Z,0.70
2023-11-27T05:15:48.261Z,0.77
2023-11-27T05:18:14.840Z,1.00
2023-11-27T05:20:42.484Z,0.70
2023-11-27T05:23:09.101Z,0.70
2023-11-27T05:25:36.789Z,0.70
2023-11-27T05:28:03.463Z,0.85
2023-11-27T05:30:31.146Z,0.82
2023-11-27T05:32:59.425Z,0.70
2023-11-27T05:35:30.130Z,1.10
2023-11-27T05:37:58.797Z,0.55
2023-11-27T05:40:27.717Z,0.73
2023-11-27T05:42:54.380Z,0.75
2023-11-27T05:45:22.010Z,0.70
2023-11-27T05:47:48.620Z,0.80
2023-11-27T05:50:15.174Z,0.80
2023-11-27T05:52:43.531Z,0.60
2023-11-27T05:55:10.386Z,0.60
2023-11-27T05:57:38.339Z,0.50
2023-11-27T06:00:05.584Z,0.50
2023-11-27T06:02:32.258Z,0.55
2023-11-27T06:04:59.974Z,0.52
2023-11-27T06:07:27.658Z,0.45
2023-11-27T06:09:54.318Z,0.60
2023-11-27T06:12:22.068Z,0.60
2023-11-27T06:14:49.698Z,0.32
2023-11-27T06:17:16.360Z,0.60
2023-11-27T06:19:42.948Z,0.70
2023-11-27T06:22:10.573Z,0.82
2023-11-27T06:24:41.118Z,1.00
2023-11-27T06:27:08.731Z,0.93
2023-11-27T06:29:35.306Z,0.90
2023-11-27T06:32:03.004Z,0.63
2023-11-27T06:34:29.676Z,0.60
2023-11-27T06:36:56.312Z,0.73
2023-11-27T06:39:23.986Z,0.57
2023-11-27T06:41:50.567Z,0.50
2023-11-27T06:44:18.216Z,0.50
2023-11-27T06:46:46.558Z,0.73
2023-11-27T06:49:13.470Z,0.52
2023-11-27T06:51:41.617Z,0.43
2023-11-27T06:54:08.188Z,0.70
2023-11-27T06:56:37.763Z,0.70
2023-11-27T06:59:07.899Z,0.90
2023-11-27T07:01:34.715Z,0.60
2023-11-27T07:04:04.713Z,0.70
2023-11-27T07:06:31.421Z,1.00
2023-11-27T07:08:59.083Z,0.90
2023-11-27T07:11:26.192Z,0.70
2023-11-27T07:13:53.918Z,0.80
2023-11-27T07:16:20.636Z,0.60
2023-11-27T07:18:47.405Z,0.75
2023-11-27T07:21:15.189Z,1.00
2023-11-27T07:23:41.762Z,0.82
2023-11-27T07:26:10.123Z,0.68
2023-11-27T07:28:39.403Z,0.60
2023-11-27T07:31:06.087Z,0.52
2023-11-27T07:33:33.737Z,0.90
2023-11-27T07:36:00.460Z,0.50
2023-11-27T07:38:28.062Z,0.60
2023-11-27T07:40:54.609Z,0.68
2023-11-27T07:43:22.253Z,0.60
2023-11-27T07:45:48.881Z,0.80
2023-11-27T07:48:16.577Z,1.00
2023-11-27T07:50:44.329Z,0.80
2023-11-27T07:53:10.958Z,0.73
2023-11-27T07:55:38.862Z,0.85
2023-11-27T07:58:06.752Z,0.82
2023-11-27T08:00:34.154Z,0.82
2023-11-27T08:03:01.810Z,0.80
2023-11-27T08:05:28.496Z,0.85
2023-11-27T08:07:56.193Z,0.75
2023-11-27T08:10:23.887Z,1.02
2023-11-27T08:12:51.930Z,0.93
2023-11-27T08:15:18.581Z,1.30
2023-11-27T08:17:50.392Z,1.25
2023-11-27T08:20:18.063Z,1.27
2023-11-27T08:22:45.024Z,1.30
2023-11-27T08:25:13.759Z,1.30
2023-11-27T08:27:40.329Z,1.02
2023-11-27T08:30:08.463Z,1.08
2023-11-27T08:32:36.182Z,1.23
2023-11-27T08:35:02.833Z,0.60
2023-11-27T08:37:29.489Z,0.70
2023-11-27T08:39:57.194Z,0.70
2023-11-27T08:42:23.791Z,0.90
2023-11-27T08:44:51.401Z,0.70
2023-11-27T08:47:18.005Z,0.70
2023-11-27T08:49:45.644Z,0.80
2023-11-27T08:52:13.279Z,0.90
2023-11-27T08:54:39.864Z,0.55
2023-11-27T08:57:06.447Z,0.70
2023-11-27T08:59:34.042Z,0.65
2023-11-27T09:02:00.693Z,0.70
2023-11-27T09:04:28.376Z,0.70
2023-11-27T09:06:54.967Z,0.70
2023-11-27T09:09:21.568Z,0.90
2023-11-27T09:11:49.248Z,1.33
2023-11-27T09:14:15.822Z,0.60
2023-11-27T09:16:43.603Z,0.52
2023-11-27T09:19:10.232Z,0.55
2023-11-27T09:21:37.932Z,0.55
2023-11-27T09:24:04.696Z,0.50
2023-11-27T09:26:31.266Z,0.52
2023-11-27T09:28:58.877Z,0.70
2023-11-27T09:31:25.502Z,0.60
2023-11-27T09:33:52.186Z,0.50
2023-11-27T09:36:19.817Z,0.73
2023-11-27T09:38:46.407Z,0.50
2023-11-27T09:41:14.081Z,0.63
2023-11-27T09:43:41.139Z,0.70
2023-11-27T09:46:10.860Z,0.60
2023-11-27T09:48:43.303Z,0.55
2023-11-27T09:51:13.173Z,0.60
2023-11-27T09:53:48.659Z,0.45
2023-11-27T09:56:15.726Z,0.77
2023-11-27T09:58:43.377Z,0.45
2023-11-27T10:01:15.371Z,0.45
2023-11-27T10:03:43.732Z,0.50
2023-11-27T10:06:11.644Z,0.65
2023-11-27T10:08:38.320Z,0.40
2023-11-27T10:11:06.548Z,0.65
2023-11-27T10:13:40.984Z,0.50
2023-11-27T10:16:22.521Z,0.30
2023-11-27T10:18:50.667Z,0.30
2023-11-27T10:21:18.352Z,0.40
2023-11-27T10:23:45.994Z,0.40
2023-11-27T10:26:12.584Z,0.40
2023-11-27T10:28:44.235Z,0.30
2023-11-27T10:31:11.093Z,0.60
2023-11-27T10:33:38.814Z,0.40
2023-11-27T10:36:05.734Z,0.55
2023-11-27T10:38:32.288Z,0.40
2023-11-27T10:41:05.253Z,0.65
2023-11-27T10:43:34.930Z,0.43
2023-11-27T10:46:02.761Z,0.47
2023-11-27T10:48:41.073Z,0.40
2023-11-27T10:51:12.805Z,0.40
2023-11-27T10:53:41.930Z,0.50
2023-11-27T10:56:09.993Z,0.40
2023-11-27T10:58:38.021Z,0.50
2023-11-27T11:01:05.208Z,0.60
2023-11-27T11:03:36.937Z,0.60
2023-11-27T11:06:07.112Z,0.77
2023-11-27T11:08:36.647Z,0.50
2023-11-27T11:11:04.075Z,0.50
2023-11-27T11:13:30.689Z,0.50
2023-11-27T11:16:10.671Z,0.50
2023-11-27T11:18:48.321Z,0.57
2023-11-27T11:21:31.651Z,0.60
2023-11-27T11:24:28.387Z,0.60
2023-11-27T11:27:00.622Z,0.68
2023-11-27T11:29:35.410Z,0.60
2023-11-27T11:32:14.194Z,0.57
2023-11-27T11:34:53.830Z,0.80
2023-11-27T11:37:20.489Z,0.40
2023-11-27T11:39:48.775Z,0.70
2023-11-27T11:42:17.981Z,0.60
2023-11-27T11:45:06.797Z,0.50
2023-11-27T11:47:33.573Z,0.65
2023-11-27T11:50:22.976Z,0.60
2023-11-27T11:52:49.605Z,0.70
2023-11-27T11:55:31.880Z,0.63
2023-11-27T11:58:32.720Z,0.68
2023-11-27T12:01:04.816Z,0.80
2023-11-27T12:03:33.265Z,0.90
2023-11-27T12:06:02.340Z,0.75
2023-11-27T12:08:35.667Z,0.70
2023-11-27T12:11:02.542Z,0.70
2023-11-27T12:13:30.396Z,0.80
2023-11-27T12:15:57.424Z,0.80
2023-11-27T12:18:24.711Z,1.02
2023-11-27T12:20:52.452Z,1.05
2023-11-27T12:23:20.114Z,0.70
2023-11-27T12:25:47.850Z,0.98
2023-11-27T12:28:15.184Z,0.65
2023-11-27T12:30:41.841Z,0.80
2023-11-27T12:33:10.776Z,1.00
2023-11-27T12:35:37.331Z,0.82
2023-11-27T12:38:07.082Z,0.30
2023-11-27T12:40:35.818Z,0.70
2023-11-27T12:43:07.576Z,0.60
2023-11-27T12:45:37.236Z,0.75
2023-11-27T12:48:05.232Z,0.70
2023-11-27T12:50:35.418Z,0.80
2023-11-27T12:53:03.963Z,0.60
2023-11-27T12:55:31.379Z,1.02
2023-11-27T12:57:59.020Z,0.63
2023-11-27T13:00:25.556Z,0.55
2023-11-27T13:02:52.218Z,0.60
2023-11-27T13:05:19.820Z,1.42
2023-11-27T13:07:51.778Z,0.60
2023-11-27T13:10:19.433Z,0.65
2023-11-27T13:12:46.040Z,0.60
2023-11-27T13:15:12.624Z,0.60
2023-11-27T13:17:41.242Z,0.38
2023-11-27T13:20:08.718Z,0.55
2023-11-27T13:22:35.339Z,0.30
2023-11-27T13:25:03.678Z,0.57
2023-11-27T13:27:31.285Z,0.43
2023-11-27T13:29:58.929Z,0.63
2023-11-27T13:32:25.624Z,0.40
2023-11-27T13:34:53.337Z,0.50
2023-11-27T13:37:20.223Z,0.50
2023-11-27T13:39:46.775Z,0.40
2023-11-27T13:42:14.539Z,0.80
2023-11-27T13:44:42.157Z,0.30
2023-11-27T13:47:08.732Z,0.70
2023-11-27T13:49:35.421Z,0.65
2023-11-27T13:54:32.624Z,0.52
2023-11-27T13:57:00.287Z,0.63
2023-11-27T13:59:29.770Z,0.40
2023-11-27T14:01:56.594Z,0.60
2023-11-27T14:04:24.417Z,0.38
2023-11-27T14:06:55.702Z,0.47
2023-11-27T14:09:24.287Z,0.40
2023-11-27T14:11:50.820Z,0.32
2023-11-27T14:14:17.348Z,0.50
2023-11-27T14:16:46.223Z,0.65
2023-11-27T14:19:14.360Z,0.60
2023-11-27T14:21:45.129Z,0.40
2023-11-27T14:24:11.666Z,0.50
2023-11-27T14:26:39.289Z,0.30
2023-11-27T14:29:05.898Z,0.25
2023-11-27T14:31:33.834Z,0.68
2023-11-27T14:34:01.055Z,0.50
2023-11-27T14:36:28.037Z,0.40
2023-11-27T14:38:55.622Z,0.40
2023-11-27T14:41:22.210Z,0.30
2023-11-27T14:43:48.819Z,0.55
2023-11-27T14:46:17.762Z,0.50
2023-11-27T14:48:44.573Z,0.40
2023-11-27T14:51:11.281Z,0.63
2023-11-27T14:53:39.357Z,0.50
2023-11-27T14:56:06.258Z,0.60
2023-11-27T14:58:33.884Z,0.50
2023-11-27T15:01:00.459Z,0.40
2023-11-27T15:03:27.558Z,0.17
2023-11-27T15:05:55.546Z,0.47
2023-11-27T15:08:22.419Z,0.40
2023-11-27T15:10:50.924Z,0.35
2023-11-27T15:13:19.878Z,0.50
2023-11-27T15:15:46.857Z,0.43
2023-11-27T15:18:14.530Z,0.47
2023-11-27T15:20:41.109Z,0.47
2023-11-27T15:23:08.723Z,0.52
2023-11-27T15:25:35.278Z,0.80
2023-11-27T15:28:01.822Z,0.43
2023-11-27T15:30:30.170Z,0.80
2023-11-27T15:32:56.887Z,0.35
2023-11-27T15:35:24.615Z,0.50
2023-11-27T15:37:51.179Z,0.40
2023-11-27T15:40:17.867Z,0.40
2023-11-27T15:42:46.213Z,0.40
2023-11-27T15:45:13.113Z,0.30
2023-11-27T15:47:39.810Z,0.52
2023-11-27T15:50:08.130Z,0.45
2023-11-27T15:52:34.895Z,0.60
2023-11-27T15:55:01.602Z,0.20
2023-11-27T15:57:29.224Z,0.50
2023-11-27T15:59:55.759Z,0.40
2023-11-27T16:02:23.439Z,0.40
2023-11-27T16:04:50.185Z,0.40
2023-11-27T16:07:16.869Z,0.30
2023-11-27T16:09:44.505Z,0.10
2023-11-27T16:12:12.213Z,0.50
2023-11-27T16:14:38.803Z,0.40
2023-11-27T16:17:06.375Z,0.73
2023-11-27T16:19:32.978Z,0.80
2023-11-27T16:21:59.515Z,0.60
2023-11-27T16:24:27.079Z,0.40
2023-11-27T16:26:53.658Z,0.70
2023-11-27T16:29:20.272Z,0.30
2023-11-27T16:31:48.021Z,0.35
2023-11-27T16:34:14.811Z,0.22
2023-11-27T16:36:43.211Z,0.40
2023-11-27T16:39:11.432Z,0.60
2023-11-27T16:41:38.002Z,0.50
2023-11-27T16:44:05.942Z,0.35
2023-11-27T16:46:34.911Z,0.60
2023-11-27T16:51:35.970Z,0.85
2023-11-27T16:54:06.644Z,0.55
2023-11-27T16:56:40.204Z,1.15
2023-11-27T16:59:08.014Z,0.93
2023-11-27T17:04:01.397Z,1.15
2023-11-27T17:06:29.282Z,0.95
2023-11-27T17:08:55.814Z,0.90
2023-11-27T17:11:23.545Z,1.00
2023-11-27T17:13:50.625Z,0.90
2023-11-27T17:16:17.404Z,0.90
2023-11-27T17:18:45.024Z,0.80
2023-11-27T17:21:12.676Z,1.05
2023-11-27T17:23:39.209Z,0.60
2023-11-27T17:26:06.084Z,0.98
2023-11-27T17:28:33.796Z,1.02
2023-11-27T17:31:01.507Z,1.33
2023-11-27T17:33:29.153Z,1.35
2023-11-27T17:35:55.814Z,1.00
2023-11-27T17:38:22.398Z,1.13
2023-11-27T17:40:50.028Z,0.90
2023-11-27T17:43:16.663Z,1.25
2023-11-27T17:45:43.647Z,1.38
2023-11-27T17:48:11.286Z,1.52
2023-11-27T17:50:37.884Z,1.60
2023-11-27T17:53:05.450Z,1.98
2023-11-27T17:55:39.036Z,1.73
2023-11-27T17:58:12.872Z,1.60
2023-11-27T18:00:39.629Z,1.90
2023-11-27T18:03:06.393Z,2.35
2023-11-27T18:05:36.667Z,2.38
2023-11-27T18:08:03.358Z,3.90
2023-11-27T18:10:29.994Z,2.08
2023-11-27T18:12:57.944Z,2.58
2023-11-27T18:15:24.533Z,1.77
2023-11-27T18:17:53.609Z,1.80
2023-11-27T18:22:49.496Z,1.55
2023-11-27T18:25:18.384Z,1.75
2023-11-27T18:27:49.433Z,1.42
2023-11-27T18:30:16.808Z,2.15
2023-11-27T18:32:45.469Z,1.92
2023-11-27T18:35:13.855Z,2.10
2023-11-27T18:37:42.041Z,5.75
2023-11-27T18:40:09.571Z,4.35
2023-11-27T18:42:42.689Z,5.40
2023-11-27T18:45:11.254Z,2.20
2023-11-27T18:47:39.911Z,2.60
2023-11-27T18:50:08.441Z,2.63
2023-11-27T18:52:35.409Z,1.92
2023-11-27T18:55:03.313Z,3.00
2023-11-27T18:57:31.002Z,1.77
2023-11-27T18:59:58.668Z,1.60
2023-11-27T19:02:25.349Z,1.70
2023-11-27T19:04:52.077Z,1.70
2023-11-27T19:07:19.771Z,2.15
2023-11-27T19:09:46.382Z,3.03
2023-11-27T19:12:14.004Z,4.88
2023-11-27T19:14:40.525Z,2.90
2023-11-27T19:17:08.310Z,1.65
2023-11-27T19:19:36.062Z,2.00
2023-11-27T19:22:03.478Z,1.90
2023-11-27T19:24:31.160Z,2.38
2023-11-27T19:26:57.730Z,1.70
2023-11-27T19:29:25.299Z,1.77
2023-11-27T19:31:53.093Z,1.70
2023-11-27T19:34:24.225Z,1.35
2023-11-27T19:36:50.857Z,1.50
2023-11-27T19:39:18.814Z,1.23
2023-11-27T19:41:52.104Z,1.40
2023-11-27T19:44:21.708Z,1.70
2023-11-27T19:46:52.639Z,1.30
2023-11-27T19:49:22.319Z,2.03
2023-11-27T19:51:48.946Z,1.38
2023-11-27T19:54:16.615Z,2.53
2023-11-27T19:56:44.338Z,1.95
2023-11-27T19:59:10.884Z,1.15
2023-11-27T20:01:38.530Z,1.98
2023-11-27T20:04:05.172Z,1.75
2023-11-27T20:06:31.769Z,2.30
2023-11-27T20:08:59.379Z,2.53
2023-11-27T20:11:27.008Z,3.15
2023-11-27T20:13:54.670Z,5.63
2023-11-27T20:16:22.373Z,5.03
2023-11-27T20:18:50.047Z,3.90
2023-11-27T20:21:16.891Z,1.85
2023-11-27T20:23:43.561Z,2.15
2023-11-27T20:26:11.365Z,1.63
2023-11-27T20:28:39.272Z,2.55
2023-11-27T20:31:06.906Z,2.45
2023-11-27T20:33:37.702Z,2.05
2023-11-27T20:36:05.430Z,2.17
2023-11-27T20:38:32.008Z,2.58
2023-11-27T20:40:59.597Z,2.40
2023-11-27T20:43:27.205Z,3.10
2023-11-27T20:45:54.861Z,2.78
2023-11-27T20:48:21.524Z,2.88
2023-11-27T20:50:48.231Z,2.35
2023-11-27T20:53:15.831Z,2.95
2023-11-27T20:55:42.437Z,3.33
2023-11-27T20:58:10.098Z,2.95
2023-11-27T21:00:36.823Z,2.42
2023-11-27T21:03:04.588Z,2.70
2023-11-27T21:05:32.325Z,3.05
2023-11-27T21:08:00.393Z,2.28
2023-11-27T21:10:28.270Z,2.80
2023-11-27T21:12:54.806Z,3.08
2023-11-27T21:15:22.413Z,3.92
2023-11-27T21:17:50.117Z,3.20
2023-11-27T21:20:17.805Z,3.38
2023-11-27T21:22:44.417Z,3.10
2023-11-27T21:25:12.169Z,4.82
2023-11-27T21:27:38.753Z,3.53
2023-11-27T21:30:06.878Z,2.92
2023-11-27T21:32:34.632Z,3.40
2023-11-27T21:35:02.252Z,2.83
2023-11-27T21:37:33.543Z,2.38
2023-11-27T21:40:09.067Z,2.88
2023-11-27T21:42:43.680Z,2.05
2023-11-27T21:45:11.798Z,2.67
2023-11-27T21:47:38.467Z,3.88
2023-11-27T21:50:06.077Z,3.45
2023-11-27T21:52:33.727Z,3.50
2023-11-27T21:55:00.339Z,4.25
2023-11-27T21:57:27.963Z,4.53
2023-11-27T21:59:54.679Z,4.20
2023-11-27T22:02:21.309Z,4.80
2023-11-27T22:04:49.803Z,3.95
2023-11-27T22:07:17.028Z,4.85
2023-11-27T22:09:44.701Z,4.78
2023-11-27T22:12:11.229Z,4.63
2023-11-27T22:14:39.873Z,5.05
2023-11-27T22:17:06.485Z,4.78
2023-11-27T22:19:34.104Z,4.80
2023-11-27T22:22:00.701Z,4.57
2023-11-27T22:24:28.306Z,4.00
2023-11-27T22:26:54.878Z,3.85
2023-11-27T22:29:21.497Z,3.97
2023-11-27T22:31:49.239Z,3.72
2023-11-27T22:34:16.983Z,4.50
2023-11-27T22:36:43.568Z,3.47
2023-11-27T22:39:11.196Z,3.30
2023-11-27T22:41:37.762Z,3.90
2023-11-27T22:44:05.444Z,4.97
2023-11-27T22:46:32.039Z,4.13
2023-11-27T22:48:58.682Z,4.57
2023-11-27T22:51:26.288Z,3.88
2023-11-27T22:53:52.847Z,3.65
2023-11-27T22:56:20.739Z,3.85
2023-11-27T22:58:47.349Z,4.20
2023-11-27T23:01:15.009Z,3.35
2023-11-27T23:03:43.434Z,3.15
2023-11-27T23:06:25.382Z,3.30
2023-11-27T23:09:00.845Z,3.22
2023-11-27T23:11:27.435Z,3.90
2023-11-27T23:13:55.095Z,3.95
2023-11-27T23:16:22.852Z,3.60
2023-11-27T23:18:49.447Z,3.58
2023-11-27T23:21:16.045Z,3.53
2023-11-27T23:23:43.709Z,2.72
2023-11-27T23:26:11.382Z,2.20
2023-11-27T23:28:38.010Z,2.50
2023-11-27T23:31:05.770Z,2.92
2023-11-27T23:33:33.463Z,2.72
2023-11-27T23:36:00.083Z,2.50
2023-11-27T23:38:27.964Z,2.88
2023-11-27T23:40:54.584Z,3.30
2023-11-27T23:43:22.316Z,3.25
2023-11-27T23:45:49.045Z,2.80
2023-11-27T23:48:16.943Z,2.95
2023-11-27T23:50:44.608Z,2.78
2023-11-27T23:53:12.161Z,3.30
2023-11-27T23:55:39.111Z,2.60
2023-11-27T23:58:07.449Z,3.13
